Time;durP1;ratioP1;P1;durP2;ratioP2;P2;SDS_P1;SDS_P2;PMS_P1;PMS_P2;Temp;Humidity;BMP_temperature;BMP_pressure;BME280_temperature;BME280_humidity;BME280_pressure;Samples;Min_cycle;Max_cycle;Signal;HPM_P1;HPM_P2
2021/07/23 00:00:09;;;;;;;1.55;1.00;;;24.00;50.30;;;;;;4343812;33;20069;-42
2021/07/23 00:02:35;;;;;;;1.30;1.10;;;24.00;50.30;;;;;;4330101;33;20095;-40
2021/07/23 00:05:02;;;;;;;1.10;1.00;;;23.90;50.40;;;;;;4344051;33;20074;-42
2021/07/23 00:07:28;;;;;;;1.30;0.90;;;23.90;50.30;;;;;;4343596;33;20117;-42
2021/07/23 00:09:55;;;;;;;2.30;1.20;;;23.80;50.50;;;;;;4343262;33;20067;-42
2021/07/23 00:12:21;;;;;;;1.30;0.95;;;23.80;50.70;;;;;;4343579;33;20077;-42
2021/07/23 00:14:47;;;;;;;2.45;1.10;;;23.80;50.80;;;;;;4343485;33;20091;-41
2021/07/23 00:17:14;;;;;;;2.47;1.10;;;23.80;50.80;;;;;;4343657;33;20083;-42
2021/07/23 00:19:40;;;;;;;1.30;0.90;;;23.80;50.60;;;;;;4343060;33;20075;-41
2021/07/23 00:22:06;;;;;;;7.93;1.15;;;23.80;50.50;;;;;;4343076;33;20142;-41
2021/07/23 00:24:33;;;;;;;2.83;1.25;;;23.70;50.40;;;;;;4329855;33;20114;-42
2021/07/23 00:26:59;;;;;;;4.12;1.02;;;23.70;50.60;;;;;;4342925;33;20559;-41
2021/07/23 00:29:26;;;;;;;2.75;1.00;;;23.60;50.50;;;;;;4343215;33;20102;-42
2021/07/23 00:31:52;;;;;;;3.10;1.60;;;23.50;50.60;;;;;;4342806;33;20105;-42
2021/07/23 00:34:18;;;;;;;2.33;1.42;;;23.20;50.70;;;;;;4342813;33;20143;-41
2021/07/23 00:36:45;;;;;;;1.87;1.17;;;23.00;51.10;;;;;;4343061;33;20527;-42
2021/07/23 00:39:11;;;;;;;9.10;1.73;;;22.80;51.80;;;;;;4343030;33;20187;-42
2021/07/23 00:41:38;;;;;;;1.98;1.45;;;22.60;52.40;;;;;;4342879;33;20523;-39
2021/07/23 00:44:04;;;;;;;6.12;1.58;;;22.50;53.00;;;;;;4343222;33;20054;-42
2021/07/23 00:46:31;;;;;;;4.85;1.80;;;22.50;53.30;;;;;;4342750;33;20479;-41
2021/07/23 00:48:58;;;;;;;4.47;1.35;;;22.60;53.30;;;;;;4329133;33;20682;-41
2021/07/23 00:51:25;;;;;;;8.95;1.25;;;22.60;53.00;;;;;;4329543;33;20078;-41
2021/07/23 00:53:51;;;;;;;2.62;1.30;;;22.70;53.10;;;;;;4331147;33;20558;-41
2021/07/23 00:56:17;;;;;;;3.55;1.27;;;22.70;52.90;;;;;;4332478;33;20070;-40
2021/07/23 00:58:44;;;;;;;4.07;1.58;;;22.80;52.90;;;;;;4344924;32;20074;-42
2021/07/23 01:01:10;;;;;;;4.03;1.30;;;22.90;52.90;;;;;;4360731;32;20085;-42
2021/07/23 01:03:37;;;;;;;1.98;1.15;;;22.90;52.80;;;;;;4361003;32;20117;-42
2021/07/23 01:06:03;;;;;;;1.52;1.30;;;23.00;52.70;;;;;;4334652;32;20067;-42
2021/07/23 01:08:29;;;;;;;3.47;1.25;;;23.10;52.80;;;;;;4360972;32;20093;-42
2021/07/23 01:10:56;;;;;;;11.20;2.37;;;23.10;52.70;;;;;;4347000;32;20078;-41
2021/07/23 01:13:22;;;;;;;13.88;2.53;;;23.10;52.60;;;;;;4346931;32;20066;-42
2021/07/23 01:15:49;;;;;;;1.98;1.52;;;23.20;52.60;;;;;;4346903;32;20083;-42
2021/07/23 01:18:15;;;;;;;2.90;1.65;;;23.20;52.60;;;;;;4347077;32;20073;-43
2021/07/23 01:20:43;;;;;;;1.33;1.20;;;23.20;52.80;;;;;;4346613;32;20094;-41
2021/07/23 01:23:10;;;;;;;2.50;1.58;;;23.30;52.90;;;;;;4335304;32;20192;-38
2021/07/23 01:25:37;;;;;;;2.30;1.30;;;23.30;52.90;;;;;;4316151;33;20087;-42
2021/07/23 01:28:04;;;;;;;3.03;1.45;;;23.30;52.90;;;;;;4316634;33;20059;-41
2021/07/23 01:30:31;;;;;;;2.55;1.77;;;23.30;52.90;;;;;;4316170;33;20166;-41
2021/07/23 01:32:58;;;;;;;4.00;1.77;;;23.40;53.20;;;;;;4304237;33;20071;-41
2021/07/23 01:35:24;;;;;;;6.45;2.00;;;23.40;53.20;;;;;;4328751;33;20137;-41
2021/07/23 01:37:51;;;;;;;4.43;1.65;;;23.40;53.20;;;;;;4328251;33;20510;-41
2021/07/23 01:40:17;;;;;;;4.47;2.53;;;23.50;53.60;;;;;;4304283;33;20534;-41
2021/07/23 01:42:44;;;;;;;2.50;1.90;;;23.60;52.80;;;;;;4328283;33;20066;-42
2021/07/23 01:45:12;;;;;;;5.75;1.92;;;23.60;53.00;;;;;;4316308;33;20142;-40
2021/07/23 01:47:38;;;;;;;1.58;1.48;;;23.60;53.50;;;;;;4328525;33;20089;-43
2021/07/23 01:50:06;;;;;;;5.32;2.40;;;23.50;53.90;;;;;;4316200;33;20067;-42
2021/07/23 01:52:33;;;;;;;3.45;2.03;;;23.40;54.30;;;;;;4328004;33;20570;-42
2021/07/23 01:54:59;;;;;;;5.90;2.70;;;23.30;54.60;;;;;;4328189;33;20500;-41
2021/07/23 01:57:25;;;;;;;3.55;2.20;;;23.30;54.90;;;;;;4349519;32;20244;-43
2021/07/23 01:59:52;;;;;;;2.60;2.15;;;23.30;55.00;;;;;;4345461;33;20115;-42
2021/07/23 02:02:18;;;;;;;7.45;2.50;;;23.30;55.00;;;;;;4345195;33;20160;-41
2021/07/23 02:04:44;;;;;;;3.65;2.25;;;23.30;55.00;;;;;;4345316;32;20058;-41
2021/07/23 02:07:11;;;;;;;3.42;2.22;;;23.40;55.00;;;;;;4345625;33;20134;-42
2021/07/23 02:09:37;;;;;;;2.62;1.98;;;23.40;55.00;;;;;;4345510;33;20110;-42
2021/07/23 02:12:04;;;;;;;5.85;2.92;;;23.50;54.90;;;;;;4345121;33;20075;-42
2021/07/23 02:14:30;;;;;;;2.75;2.47;;;23.50;54.90;;;;;;4345050;33;20103;-43
2021/07/23 02:16:57;;;;;;;5.55;2.87;;;23.40;55.00;;;;;;4345375;33;20153;-43
2021/07/23 02:19:24;;;;;;;2.97;2.65;;;23.40;55.20;;;;;;4345089;33;20538;-43
2021/07/23 02:21:50;;;;;;;7.40;3.10;;;23.40;55.30;;;;;;4343664;33;20050;-41
2021/07/23 02:24:17;;;;;;;4.65;2.75;;;23.40;55.50;;;;;;4344546;33;20067;-41
2021/07/23 02:26:43;;;;;;;4.87;2.65;;;23.40;55.50;;;;;;4344977;33;20086;-37
2021/07/23 02:29:09;;;;;;;5.47;2.60;;;23.50;55.50;;;;;;4331511;33;20469;-42
2021/07/23 02:31:36;;;;;;;10.55;4.32;;;23.50;55.40;;;;;;4344849;33;20063;-42
2021/07/23 02:34:02;;;;;;;5.57;3.17;;;23.60;55.40;;;;;;4345143;33;20063;-43
2021/07/23 02:36:31;;;;;;;2.62;0.95;;;23.60;55.30;;;;;;4344455;33;20061;-41
2021/07/23 02:38:57;;;;;;;9.65;3.30;;;23.60;55.20;;;;;;4344898;33;20520;-43
2021/07/23 02:41:24;;;;;;;5.18;2.72;;;23.70;55.30;;;;;;4344922;33;20070;-41
2021/07/23 02:43:51;;;;;;;7.05;3.03;;;23.70;55.30;;;;;;4344644;33;20052;-41
2021/07/23 02:46:17;;;;;;;5.00;2.47;;;23.80;55.30;;;;;;4344850;33;20077;-42
2021/07/23 02:48:44;;;;;;;3.87;2.55;;;23.80;55.20;;;;;;4344545;33;20148;-42
2021/07/23 02:51:11;;;;;;;4.53;1.92;;;23.90;55.30;;;;;;4345016;33;20089;-43
2021/07/23 02:53:37;;;;;;;15.50;1.60;;;23.90;55.30;;;;;;4344682;33;20115;-42
2021/07/23 02:56:04;;;;;;;2.12;1.27;;;24.00;55.40;;;;;;4344282;33;20063;-43
2021/07/23 02:58:31;;;;;;;1.15;0.47;;;24.00;55.20;;;;;;4344140;33;20081;-43
2021/07/23 03:00:57;;;;;;;2.50;2.30;;;24.00;55.10;;;;;;4343361;33;20082;-44
2021/07/23 03:03:24;;;;;;;3.25;2.42;;;24.10;55.10;;;;;;4344618;32;20071;-44
2021/07/23 03:05:50;;;;;;;5.22;2.00;;;24.20;55.00;;;;;;4344253;33;20151;-44
2021/07/23 03:08:17;;;;;;;8.77;3.00;;;24.40;54.90;;;;;;4344339;32;20051;-44
2021/07/23 03:10:43;;;;;;;7.32;2.67;;;24.50;54.70;;;;;;4353168;32;20085;-45
2021/07/23 03:13:09;;;;;;;10.00;3.50;;;24.70;54.40;;;;;;4358492;32;20074;-47
2021/07/23 03:15:36;;;;;;;4.87;1.70;;;24.80;53.80;;;;;;4358655;32;20091;-45
2021/07/23 03:18:02;;;;;;;11.27;3.00;;;25.00;53.40;;;;;;4359053;32;20055;-45
2021/07/23 03:20:29;;;;;;;4.53;1.48;;;25.20;52.90;;;;;;4359253;32;20122;-45
2021/07/23 03:22:55;;;;;;;6.05;2.50;;;25.40;52.70;;;;;;4359115;32;20058;-45
2021/07/23 03:25:22;;;;;;;11.25;3.42;;;25.50;52.30;;;;;;4358907;32;20090;-42
2021/07/23 03:27:48;;;;;;;4.60;1.85;;;25.60;51.90;;;;;;4358821;32;20047;-41
2021/07/23 03:30:15;;;;;;;6.55;2.65;;;25.70;51.40;;;;;;4359009;32;20073;-46
2021/07/23 03:32:41;;;;;;;9.95;3.87;;;25.80;51.30;;;;;;4358850;32;20078;-45
2021/07/23 03:35:08;;;;;;;2.03;1.33;;;25.80;50.90;;;;;;4358775;32;20090;-47
2021/07/23 03:37:35;;;;;;;1.48;0.73;;;25.90;50.90;;;;;;4358964;32;20123;-44
2021/07/23 03:40:01;;;;;;;3.55;2.42;;;26.00;50.80;;;;;;4358580;32;20070;-45
2021/07/23 03:42:28;;;;;;;4.72;0.98;;;26.00;50.60;;;;;;4358663;32;20444;-44
2021/07/23 03:44:54;;;;;;;3.65;1.27;;;26.10;50.40;;;;;;4344355;32;20159;-45
2021/07/23 03:47:21;;;;;;;8.18;2.60;;;26.10;50.10;;;;;;4358424;32;20154;-44
2021/07/23 03:49:47;;;;;;;4.18;1.95;;;26.20;50.10;;;;;;4358598;32;20207;-47
2021/07/23 03:52:14;;;;;;;3.42;0.80;;;26.30;49.80;;;;;;4358532;32;20486;-43
2021/07/23 03:54:40;;;;;;;7.00;2.22;;;26.30;49.70;;;;;;4344542;32;20637;-43
2021/07/23 03:57:07;;;;;;;5.43;3.00;;;26.40;49.80;;;;;;4355276;32;20054;-44
2021/07/23 03:59:34;;;;;;;3.10;2.83;;;26.50;49.80;;;;;;4343607;33;20059;-46
2021/07/23 04:02:00;;;;;;;1.08;0.80;;;26.60;49.30;;;;;;4343494;33;20082;-47
2021/07/23 04:04:27;;;;;;;5.28;1.67;;;26.70;48.70;;;;;;4343444;33;20605;-46
2021/07/23 04:07:00;;;;;;;2.55;0.82;;;26.70;48.70;;;;;;4343823;33;20078;-45
2021/07/23 04:09:27;;;;;;;8.85;1.77;;;26.80;48.70;;;;;;4329371;33;20066;-44
2021/07/23 04:11:54;;;;;;;5.05;2.60;;;26.90;48.40;;;;;;4343531;33;20083;-44
2021/07/23 04:14:21;;;;;;;3.78;1.15;;;27.00;48.40;;;;;;4343514;33;20059;-42
2021/07/23 04:16:48;;;;;;;2.70;1.40;;;27.10;48.20;;;;;;4343437;33;20167;-43
2021/07/23 04:19:14;;;;;;;1.77;1.02;;;27.10;47.80;;;;;;4343290;33;20067;-42
2021/07/23 04:21:41;;;;;;;4.68;1.33;;;27.00;48.00;;;;;;4296357;33;20079;-45
2021/07/23 04:24:07;;;;;;;2.50;1.25;;;27.00;48.00;;;;;;4296617;33;20181;-44
2021/07/23 04:26:34;;;;;;;0.77;0.52;;;26.90;47.90;;;;;;4296899;33;20079;-45
2021/07/23 04:29:01;;;;;;;2.97;1.30;;;26.80;48.00;;;;;;4267150;33;20176;-45
2021/07/23 04:31:28;;;;;;;1.52;0.55;;;26.80;48.10;;;;;;4255992;33;20148;-45
2021/07/23 04:33:58;;;;;;;2.25;1.90;;;26.80;48.20;;;;;;4268260;33;20124;-42
2021/07/23 04:36:25;;;;;;;2.62;1.65;;;26.80;48.20;;;;;;4268066;33;20606;-43
2021/07/23 04:38:52;;;;;;;2.22;0.80;;;26.80;48.00;;;;;;4267557;33;20191;-42
2021/07/23 04:41:19;;;;;;;4.15;1.50;;;26.90;47.70;;;;;;4256315;33;20057;-41
2021/07/23 04:43:45;;;;;;;2.50;0.80;;;26.90;47.70;;;;;;4267625;33;20607;-45
2021/07/23 04:46:11;;;;;;;4.68;1.23;;;26.90;47.10;;;;;;4267858;33;20478;-44
2021/07/23 04:48:38;;;;;;;0.70;0.52;;;27.00;47.50;;;;;;4267862;33;20107;-43
2021/07/23 04:51:04;;;;;;;1.87;1.17;;;27.10;46.60;;;;;;4255934;33;20132;-43
2021/07/23 04:53:31;;;;;;;1.37;0.98;;;27.20;46.80;;;;;;4292280;33;20117;-43
2021/07/23 04:56:05;;;;;;;5.05;1.40;;;27.30;46.20;;;;;;4311321;33;20143;-42
2021/07/23 04:58:32;;;;;;;4.78;2.10;;;27.40;46.10;;;;;;4322678;33;20094;-42
2021/07/23 05:00:58;;;;;;;3.15;1.92;;;27.40;45.90;;;;;;4325829;33;20082;-42
2021/07/23 05:03:34;;;;;;;4.53;1.35;;;27.50;45.70;;;;;;4326085;33;20083;-43
2021/07/23 05:06:00;;;;;;;1.60;0.85;;;27.60;45.40;;;;;;4318784;33;20101;-42
2021/07/23 05:08:27;;;;;;;2.15;1.60;;;27.60;45.60;;;;;;4342891;33;20515;-42
2021/07/23 05:10:53;;;;;;;6.93;2.00;;;27.70;45.50;;;;;;4342694;33;20086;-41
2021/07/23 05:13:21;;;;;;;4.90;2.25;;;27.80;45.50;;;;;;4342894;33;20083;-42
2021/07/23 05:15:47;;;;;;;4.20;2.12;;;28.00;45.10;;;;;;4342967;33;20090;-48
2021/07/23 05:18:14;;;;;;;1.50;0.73;;;28.20;44.80;;;;;;4329228;33;20552;-42
2021/07/23 05:20:41;;;;;;;2.80;2.10;;;28.30;43.80;;;;;;4342539;33;20091;-45
2021/07/23 05:23:07;;;;;;;6.40;0.90;;;28.50;43.80;;;;;;4316887;33;20462;-55
2021/07/23 05:25:34;;;;;;;2.95;1.23;;;28.70;43.50;;;;;;4328785;33;20074;-53
2021/07/23 05:28:01;;;;;;;5.00;1.98;;;28.80;42.50;;;;;;4342800;33;20094;-55
2021/07/23 05:30:27;;;;;;;7.15;2.90;;;28.90;42.60;;;;;;4342789;33;20478;-55
2021/07/23 05:32:54;;;;;;;5.87;1.55;;;29.00;42.70;;;;;;4342442;33;20097;-46
2021/07/23 05:35:20;;;;;;;0.90;0.75;;;29.20;42.20;;;;;;4342928;33;20636;-55
2021/07/23 05:37:47;;;;;;;3.20;0.77;;;29.20;41.50;;;;;;4342545;33;20070;-54
2021/07/23 05:40:16;;;;;;;2.53;0.68;;;29.20;40.60;;;;;;4344775;32;20479;-55
2021/07/23 05:42:43;;;;;;;7.65;1.45;;;29.10;40.60;;;;;;4331909;33;20089;-54
2021/07/23 05:45:10;;;;;;;3.00;1.17;;;29.10;40.80;;;;;;4345414;33;20074;-54
2021/07/23 05:47:36;;;;;;;0.62;0.62;;;29.10;41.00;;;;;;4345108;33;20063;-51
2021/07/23 05:50:04;;;;;;;4.40;1.75;;;29.20;40.80;;;;;;4345203;33;20090;-54
2021/07/23 05:52:30;;;;;;;5.12;1.95;;;29.30;40.60;;;;;;4345553;33;20063;-55
2021/07/23 05:54:56;;;;;;;1.62;0.82;;;29.40;40.50;;;;;;4345675;33;20065;-54
2021/07/23 05:57:23;;;;;;;4.10;1.52;;;29.50;39.70;;;;;;4345590;33;20078;-53
2021/07/23 05:59:49;;;;;;;1.20;0.80;;;29.50;39.60;;;;;;4344587;33;20512;-54
2021/07/23 06:02:16;;;;;;;1.60;0.80;;;29.40;38.80;;;;;;4344713;33;20540;-54
2021/07/23 06:04:42;;;;;;;2.65;1.70;;;29.50;39.30;;;;;;4345380;33;20066;-54
2021/07/23 06:07:09;;;;;;;2.17;1.50;;;29.60;40.10;;;;;;4345281;33;20075;-53
2021/07/23 06:09:35;;;;;;;2.35;1.45;;;29.80;39.90;;;;;;4345155;33;20086;-53
2021/07/23 06:12:02;;;;;;;4.43;1.20;;;30.10;38.90;;;;;;4344891;33;20120;-48
2021/07/23 06:14:29;;;;;;;1.35;0.93;;;30.30;37.90;;;;;;4344684;33;20062;-53
2021/07/23 06:16:55;;;;;;;3.15;1.30;;;30.30;37.00;;;;;;4345163;33;20565;-54
2021/07/23 06:19:22;;;;;;;4.43;1.30;;;30.30;37.60;;;;;;4344866;33;20066;-54
2021/07/23 06:21:49;;;;;;;4.93;2.00;;;30.50;37.50;;;;;;4345199;33;20126;-53
2021/07/23 06:24:15;;;;;;;5.18;2.53;;;30.60;38.30;;;;;;4344886;33;20519;-49
2021/07/23 06:26:43;;;;;;;7.53;1.98;;;30.70;38.10;;;;;;4345020;33;20150;-54
2021/07/23 06:29:10;;;;;;;2.90;1.37;;;31.10;37.10;;;;;;4344963;33;20495;-54
2021/07/23 06:31:36;;;;;;;1.80;0.37;;;31.30;34.80;;;;;;4345004;33;20086;-51
2021/07/23 06:34:03;;;;;;;0.82;0.62;;;31.40;33.20;;;;;;4344450;33;20131;-52
2021/07/23 06:36:33;;;;;;;0.62;0.40;;;31.30;33.00;;;;;;4345004;33;20171;-56
2021/07/23 06:38:59;;;;;;;0.93;0.60;;;31.20;33.10;;;;;;4344352;33;20150;-53
2021/07/23 06:41:26;;;;;;;0.85;0.57;;;31.10;32.60;;;;;;4344446;33;20085;-50
2021/07/23 06:43:52;;;;;;;1.65;1.08;;;31.10;32.40;;;;;;4344851;33;20085;-51
2021/07/23 06:46:19;;;;;;;1.70;1.20;;;31.10;33.70;;;;;;4344456;33;20101;-49
2021/07/23 06:48:45;;;;;;;2.10;0.90;;;31.10;33.90;;;;;;4344569;33;20535;-50
2021/07/23 06:51:13;;;;;;;0.95;0.60;;;31.10;34.80;;;;;;4343621;32;20175;-48
2021/07/23 06:53:40;;;;;;;1.98;0.70;;;31.30;33.40;;;;;;4344501;33;20482;-45
2021/07/23 06:56:06;;;;;;;2.03;1.20;;;31.40;32.90;;;;;;4344307;33;20070;-46
2021/07/23 06:58:34;;;;;;;1.85;1.08;;;31.40;33.70;;;;;;4356322;32;20055;-50
2021/07/23 07:01:07;;;;;;;6.82;1.83;;;31.50;33.30;;;;;;4358906;32;20498;-49
2021/07/23 07:03:33;;;;;;;5.72;1.70;;;31.50;33.70;;;;;;4358898;32;20058;-53
2021/07/23 07:06:02;;;;;;;3.00;1.87;;;31.50;34.30;;;;;;4359595;32;20617;-40
2021/07/23 07:08:28;;;;;;;1.62;0.98;;;31.60;34.10;;;;;;4359251;32;20592;-41
2021/07/23 07:10:55;;;;;;;6.60;1.23;;;31.60;33.70;;;;;;4358828;32;20215;-43
2021/07/23 07:13:21;;;;;;;1.12;0.62;;;31.60;33.80;;;;;;4359373;32;20078;-42
2021/07/23 07:15:47;;;;;;;5.53;1.60;;;31.70;32.80;;;;;;4359190;32;20082;-42
2021/07/23 07:18:14;;;;;;;4.32;1.40;;;31.60;32.30;;;;;;4345199;32;20142;-43
2021/07/23 07:20:40;;;;;;;3.22;1.10;;;31.60;32.50;;;;;;4358744;32;20071;-47
2021/07/23 07:23:07;;;;;;;5.18;1.87;;;31.70;32.70;;;;;;4358864;32;20068;-49
2021/07/23 07:25:33;;;;;;;1.83;1.10;;;31.70;32.90;;;;;;4359023;32;20085;-49
2021/07/23 07:28:02;;;;;;;11.73;1.27;;;31.70;32.70;;;;;;4345158;32;20198;-55
2021/07/23 07:30:29;;;;;;;2.33;1.40;;;31.70;32.90;;;;;;4359096;32;20090;-53
2021/07/23 07:32:56;;;;;;;2.53;1.02;;;31.60;33.10;;;;;;4358752;32;20149;-54
2021/07/23 07:35:23;;;;;;;3.05;1.12;;;31.40;32.80;;;;;;4358930;32;20086;-50
2021/07/23 07:37:49;;;;;;;1.52;0.62;;;31.20;33.10;;;;;;4344677;32;20479;-48
2021/07/23 07:40:16;;;;;;;7.80;1.00;;;31.10;33.20;;;;;;4358772;32;20070;-50
2021/07/23 07:42:42;;;;;;;3.67;1.00;;;31.00;33.50;;;;;;4358815;32;20058;-48
2021/07/23 07:45:09;;;;;;;1.65;0.80;;;31.10;32.20;;;;;;4358507;32;20479;-47
2021/07/23 07:47:36;;;;;;;2.33;0.57;;;31.20;32.90;;;;;;4358659;32;20070;-44
2021/07/23 07:50:03;;;;;;;0.35;0.30;;;31.30;33.10;;;;;;4358804;32;20058;-46
2021/07/23 07:52:29;;;;;;;1.37;1.00;;;31.30;31.20;;;;;;4358835;32;20074;-48
2021/07/23 07:54:56;;;;;;;2.67;0.98;;;31.20;31.30;;;;;;4332026;32;20066;-46
2021/07/23 07:57:23;;;;;;;4.60;1.17;;;31.20;31.50;;;;;;4353535;32;20574;-46
2021/07/23 07:59:50;;;;;;;1.05;0.70;;;31.20;31.80;;;;;;4343317;32;20555;-45
2021/07/23 08:02:17;;;;;;;1.40;0.80;;;31.30;31.90;;;;;;4343082;32;20505;-47
2021/07/23 08:04:43;;;;;;;1.42;1.10;;;31.30;31.90;;;;;;4343321;32;20566;-49
2021/07/23 08:07:11;;;;;;;5.45;1.30;;;31.40;32.60;;;;;;4343274;33;20085;-52
2021/07/23 08:09:51;;;;;;;3.37;1.00;;;31.40;32.50;;;;;;4343600;32;20094;-48
2021/07/23 08:12:17;;;;;;;6.40;1.10;;;31.40;32.10;;;;;;4357897;32;20130;-49
2021/07/23 08:14:44;;;;;;;1.80;1.05;;;31.50;32.80;;;;;;4344053;32;20537;-46
2021/07/23 08:17:10;;;;;;;2.12;1.40;;;31.60;32.60;;;;;;4358407;32;20151;-44
2021/07/23 08:19:40;;;;;;;4.80;1.27;;;31.70;32.40;;;;;;4357896;32;20157;-41
2021/07/23 08:22:06;;;;;;;1.77;0.90;;;31.70;31.70;;;;;;4344830;32;20078;-46
2021/07/23 08:24:33;;;;;;;1.33;0.68;;;31.60;31.90;;;;;;4357982;32;20077;-45
2021/07/23 08:26:59;;;;;;;1.77;0.75;;;31.50;30.60;;;;;;4358043;32;20082;-46
2021/07/23 08:29:26;;;;;;;3.72;1.00;;;31.40;30.10;;;;;;4357512;32;20070;-46
2021/07/23 08:31:52;;;;;;;5.55;0.95;;;31.30;30.60;;;;;;4357689;32;20169;-45
2021/07/23 08:34:19;;;;;;;2.33;1.08;;;31.40;31.10;;;;;;4357873;32;20066;-46
2021/07/23 08:36:45;;;;;;;1.05;0.60;;;31.50;31.30;;;;;;4357649;32;20070;-45
2021/07/23 08:39:12;;;;;;;0.65;0.52;;;31.60;30.40;;;;;;4357384;32;20082;-45
2021/07/23 08:41:38;;;;;;;0.77;0.40;;;31.60;29.60;;;;;;4357773;32;20073;-44
2021/07/23 08:44:05;;;;;;;2.42;0.82;;;31.60;29.70;;;;;;4357984;32;20531;-42
2021/07/23 08:46:31;;;;;;;3.00;1.23;;;31.60;29.90;;;;;;4357841;32;20058;-46
2021/07/23 08:48:58;;;;;;;1.62;0.90;;;31.60;30.00;;;;;;4357670;32;20514;-46
2021/07/23 08:51:26;;;;;;;1.87;1.00;;;31.70;30.10;;;;;;4343758;32;20670;-46
2021/07/23 08:53:52;;;;;;;4.12;1.90;;;31.90;30.00;;;;;;4343755;32;20064;-46
2021/07/23 08:56:19;;;;;;;5.28;1.00;;;32.10;30.10;;;;;;4343895;32;20089;-48
2021/07/23 08:58:45;;;;;;;3.03;0.65;;;32.30;29.80;;;;;;4344723;32;20070;-46
2021/07/23 09:01:11;;;;;;;1.80;0.90;;;32.40;29.20;;;;;;4342892;33;20082;-45
2021/07/23 09:03:38;;;;;;;5.22;0.80;;;32.50;28.80;;;;;;4342539;33;20067;-45
2021/07/23 09:06:34;;;;;;;2.40;0.95;;;32.60;28.60;;;;;;4343345;33;20128;-46
2021/07/23 09:09:04;;;;;;;2.05;0.85;;;32.70;28.80;;;;;;4296413;33;20141;-45
2021/07/23 09:11:31;;;;;;;1.62;1.10;;;32.90;28.30;;;;;;4296732;33;20067;-47
2021/07/23 09:14:16;;;;;;;2.87;1.20;;;32.90;28.50;;;;;;4297558;33;20076;-46
2021/07/23 09:16:43;;;;;;;2.70;0.68;;;33.00;28.70;;;;;;4299023;33;20068;-45
2021/07/23 09:19:10;;;;;;;1.95;0.90;;;32.90;28.20;;;;;;4275340;33;20612;-48
2021/07/23 09:21:38;;;;;;;1.95;1.17;;;32.90;28.30;;;;;;4299376;33;20078;-48
2021/07/23 09:24:07;;;;;;;1.55;0.62;;;32.90;28.50;;;;;;4299416;33;20068;-44
2021/07/23 09:26:43;;;;;;;0.62;0.47;;;32.90;28.50;;;;;;4299487;33;20076;-47
2021/07/23 09:29:10;;;;;;;3.80;1.58;;;32.90;27.70;;;;;;4299550;33;20072;-49
2021/07/23 09:31:36;;;;;;;0.85;0.55;;;32.80;27.60;;;;;;4299364;33;20095;-48
2021/07/23 09:34:04;;;;;;;0.37;0.22;;;32.80;27.90;;;;;;4299550;33;20056;-48
2021/07/23 09:36:32;;;;;;;1.42;0.82;;;32.60;27.90;;;;;;4299424;33;20096;-49
2021/07/23 09:39:06;;;;;;;3.50;0.80;;;32.60;27.90;;;;;;4298924;33;20588;-46
2021/07/23 09:41:34;;;;;;;1.02;0.80;;;32.80;28.00;;;;;;4298777;33;21211;-48
2021/07/23 09:44:06;;;;;;;4.82;0.68;;;32.90;27.30;;;;;;4299307;33;20088;-47
2021/07/23 09:46:43;;;;;;;1.40;0.73;;;32.90;27.40;;;;;;4344412;33;20153;-47
2021/07/23 09:49:30;;;;;;;1.55;0.70;;;32.70;27.20;;;;;;4332940;33;20066;-46
2021/07/23 09:52:04;;;;;;;1.65;0.90;;;32.70;27.00;;;;;;4345361;33;20066;-50
2021/07/23 09:54:31;;;;;;;2.28;0.47;;;32.70;27.30;;;;;;4332224;33;20066;-49
2021/07/23 09:57:00;;;;;;;3.95;0.90;;;32.90;27.10;;;;;;4347722;32;20057;-51
2021/07/23 09:59:49;;;;;;;1.33;0.90;;;33.10;26.80;;;;;;4359724;32;20478;-50
2021/07/23 10:02:22;;;;;;;4.55;0.80;;;33.30;26.50;;;;;;4334448;32;20201;-47
2021/07/23 10:05:09;;;;;;;1.50;0.62;;;33.30;26.50;;;;;;4321757;32;20221;-47
2021/07/23 10:07:56;;;;;;;1.92;0.80;;;33.50;26.50;;;;;;4346286;32;20055;-47
2021/07/23 10:10:22;;;;;;;0.82;0.60;;;33.50;26.30;;;;;;4343601;33;20474;-46
2021/07/23 10:12:49;;;;;;;1.30;0.62;;;33.50;26.10;;;;;;4343608;33;20074;-47
2021/07/23 10:15:18;;;;;;;1.12;0.70;;;33.60;26.60;;;;;;4343856;33;20145;-48
2021/07/23 10:17:44;;;;;;;3.10;1.12;;;33.70;26.40;;;;;;4344941;32;20069;-47
2021/07/23 10:20:12;;;;;;;3.78;0.90;;;33.80;26.60;;;;;;4306896;33;20089;-45
2021/07/23 10:22:39;;;;;;;1.62;1.00;;;33.90;27.30;;;;;;4343369;33;20070;-45
2021/07/23 10:25:06;;;;;;;1.45;1.05;;;33.90;27.30;;;;;;4314695;33;20079;-45
2021/07/23 10:27:32;;;;;;;1.65;1.10;;;33.90;27.00;;;;;;4315258;33;20161;-46
2021/07/23 10:29:59;;;;;;;1.75;0.70;;;33.80;26.90;;;;;;4315344;33;20153;-48
2021/07/23 10:32:25;;;;;;;1.75;0.95;;;33.80;27.00;;;;;;4327555;33;20071;-47
2021/07/23 10:34:52;;;;;;;1.95;0.90;;;33.80;26.90;;;;;;4327727;33;20071;-48
2021/07/23 10:37:31;;;;;;;5.75;0.70;;;33.80;26.90;;;;;;4315420;33;20063;-47
2021/07/23 10:40:21;;;;;;;4.30;1.10;;;33.80;27.00;;;;;;4327622;33;20245;-49
2021/07/23 10:42:48;;;;;;;1.20;0.50;;;33.70;27.00;;;;;;4327546;33;20074;-50
2021/07/23 10:45:41;;;;;;;3.80;1.40;;;33.30;27.00;;;;;;4315627;33;20156;-46
2021/07/23 10:48:08;;;;;;;2.47;0.60;;;33.30;27.20;;;;;;4316976;33;20063;-46
2021/07/23 10:50:40;;;;;;;1.83;1.10;;;33.30;27.40;;;;;;4315391;33;20074;-48
2021/07/23 10:53:35;;;;;;;0.40;0.30;;;33.20;27.50;;;;;;4327411;33;20079;-48
2021/07/23 10:56:02;;;;;;;3.17;0.88;;;33.00;27.80;;;;;;4298013;33;20540;-48
2021/07/23 10:58:29;;;;;;;0.73;0.43;;;32.70;28.00;;;;;;4286527;33;20074;-49
2021/07/23 11:00:59;;;;;;;2.95;0.60;;;32.60;28.30;;;;;;4283254;33;20531;-52
2021/07/23 11:03:37;;;;;;;1.05;0.85;;;32.40;28.40;;;;;;4296141;33;20087;-42
2021/07/23 11:06:19;;;;;;;2.03;0.98;;;32.20;28.60;;;;;;4297770;33;20130;-46
2021/07/23 11:08:56;;;;;;;2.28;0.73;;;32.20;28.60;;;;;;4297988;33;20094;-44
2021/07/23 11:11:27;;;;;;;2.03;0.90;;;32.10;28.50;;;;;;4285557;33;20136;-42
2021/07/23 11:13:53;;;;;;;2.92;0.93;;;32.10;28.30;;;;;;4297765;33;20072;-42
2021/07/23 11:16:27;;;;;;;1.40;0.60;;;32.10;28.50;;;;;;4297481;33;20080;-41
2021/07/23 11:18:58;;;;;;;2.20;0.55;;;32.10;28.50;;;;;;4297762;33;20087;-42
2021/07/23 11:21:34;;;;;;;0.75;0.35;;;32.10;28.40;;;;;;4297858;33;20072;-41
2021/07/23 11:24:01;;;;;;;0.32;0.28;;;32.10;28.20;;;;;;4297512;33;20095;-42
2021/07/23 11:26:28;;;;;;;1.48;0.55;;;32.20;27.70;;;;;;4297758;33;20186;-40
2021/07/23 11:28:58;;;;;;;2.12;0.60;;;32.10;27.70;;;;;;4297496;33;20087;-41
2021/07/23 11:31:35;;;;;;;2.83;0.70;;;31.90;27.60;;;;;;4300789;33;20564;-40
2021/07/23 11:34:25;;;;;;;5.55;0.55;;;31.80;28.00;;;;;;4344171;33;20153;-41
2021/07/23 11:36:53;;;;;;;1.85;0.70;;;31.70;28.00;;;;;;4343755;32;20059;-40
2021/07/23 11:39:25;;;;;;;6.37;0.85;;;31.80;27.90;;;;;;4343410;33;20150;-40
2021/07/23 11:42:04;;;;;;;0.77;0.55;;;31.90;28.00;;;;;;4343653;33;20069;-43
2021/07/23 11:44:32;;;;;;;1.98;0.68;;;32.00;27.90;;;;;;4343923;33;20063;-40
2021/07/23 11:46:58;;;;;;;3.42;1.40;;;32.10;27.80;;;;;;4343433;33;20066;-38
2021/07/23 11:49:31;;;;;;;2.37;1.25;;;32.10;28.00;;;;;;4317373;33;20073;-37
2021/07/23 11:51:58;;;;;;;4.80;1.12;;;32.20;27.80;;;;;;4343161;33;20082;-40
2021/07/23 11:54:25;;;;;;;2.08;0.65;;;32.30;27.90;;;;;;4329492;33;20156;-40
2021/07/23 11:56:52;;;;;;;0.60;0.45;;;32.40;27.10;;;;;;4317536;33;20184;-39
2021/07/23 11:59:18;;;;;;;0.70;0.50;;;32.40;27.00;;;;;;4329966;33;20086;-38
2021/07/23 12:01:45;;;;;;;1.15;0.75;;;32.20;26.90;;;;;;4342598;33;20507;-39
2021/07/23 12:04:11;;;;;;;0.88;0.50;;;32.20;26.60;;;;;;4343717;32;20515;-38
2021/07/23 12:06:44;;;;;;;1.45;1.17;;;32.20;26.80;;;;;;4342941;32;20539;-39
2021/07/23 12:09:11;;;;;;;1.05;0.60;;;32.10;26.70;;;;;;4341701;33;20082;-38
2021/07/23 12:11:37;;;;;;;1.23;0.70;;;32.20;27.00;;;;;;4341752;33;20565;-38
2021/07/23 12:14:11;;;;;;;3.83;1.02;;;32.20;27.20;;;;;;4329641;32;20082;-37
2021/07/23 12:16:41;;;;;;;1.67;1.00;;;32.20;27.30;;;;;;4341716;33;20559;-37
2021/07/23 12:19:11;;;;;;;4.78;0.95;;;32.30;27.50;;;;;;4329448;33;20165;-38
2021/07/23 12:21:38;;;;;;;2.75;0.85;;;32.40;27.20;;;;;;4316715;33;20091;-37
2021/07/23 12:24:07;;;;;;;1.05;0.70;;;32.50;27.00;;;;;;4328446;33;20146;-38
2021/07/23 12:26:40;;;;;;;4.37;0.93;;;32.50;27.10;;;;;;4340318;33;20070;-38
2021/07/23 12:29:09;;;;;;;0.50;0.35;;;32.60;27.30;;;;;;4341111;33;20109;-37
2021/07/23 12:31:37;;;;;;;3.35;0.82;;;32.60;26.30;;;;;;4328296;33;20087;-38
2021/07/23 12:34:11;;;;;;;3.65;1.20;;;32.50;26.60;;;;;;4328919;33;20087;-37
2021/07/23 12:36:50;;;;;;;2.53;0.80;;;32.50;26.60;;;;;;4340839;33;20077;-39
2021/07/23 12:39:19;;;;;;;2.55;0.90;;;32.70;26.40;;;;;;4329215;33;20093;-37
2021/07/23 12:41:46;;;;;;;5.07;0.73;;;32.70;26.20;;;;;;4317122;33;20070;-37
2021/07/23 12:44:16;;;;;;;2.03;0.70;;;32.90;26.20;;;;;;4328271;33;20082;-38
2021/07/23 12:46:48;;;;;;;3.92;0.80;;;33.00;26.20;;;;;;4328731;33;20062;-37
2021/07/23 12:49:19;;;;;;;1.40;0.73;;;33.00;25.80;;;;;;4271895;33;20613;-38